»·PEaware :: SWA1933 KPHX-KABQ

SWA1933 :: KPHX-KABQ

FLIGHT INFORMATION

Flight Status: Arrived
Operator:
Southwest Airlines
More flights by this operator :: More flights under this callsign
Pilot: Max W. (2591)
Aircraft: BOEING 737-700
(B737)
More flights by this aircraft type
Origin: KPHX Phoenix Sky Harbor Intl
United States
Destination: KABQ Albuquerque Intl Sunport
United States
More flights between these airports :: More routes between these airports
Route: +LALUZ5 SJN CABNO KRKEE3
File this flight plan on PilotEdge
Remarks:
Altitude:
(Current/Filed)
31,000ft
Speed:
(Current/Filed)
450kts
Departed: 27-Sep-17 06:40 PM
Arrived: 27-Sep-17 07:25 PM
Distance/Time
Traveled:
284nm/0:45
Distance/Time
To Go:
Arrived

Flight Plot

Page will automatically refresh every two minutes.

Flight plan parsing failed; only flown route is shown


Map Options




Map Legend


Flown Route
Filed Route
Departure Airport
Arrival Airport
Navaid (VOR, NDB)
Fix

Horizontal Profiles

Position Reports

Time Latitude Longitude Heading Altitude Ground
Speed
27-Sep-17 18:08 33.434424 -111.995020 90 1142ft 0kts
27-Sep-17 18:09 33.434424 -111.995020 90 1142ft 0kts
27-Sep-17 18:10 33.434424 -111.995020 90 1142ft 0kts
27-Sep-17 18:11 33.434424 -111.995020 90 1142ft 0kts
27-Sep-17 18:12 33.434424 -111.995020 90 1142ft 0kts
27-Sep-17 18:13 33.434424 -111.995020 90 1142ft 0kts
27-Sep-17 18:14 33.434424 -111.995020 90 1142ft 0kts
27-Sep-17 18:15 33.434424 -111.995020 90 1142ft 0kts
27-Sep-17 18:16 33.434424 -111.995020 90 1142ft 0kts
27-Sep-17 18:17 33.434424 -111.995020 90 1142ft 0kts
27-Sep-17 18:18 33.434424 -111.995020 90 1142ft 0kts
27-Sep-17 18:19 33.434424 -111.995020 90 1142ft 0kts
27-Sep-17 18:20 33.434424 -111.995020 90 1142ft 0kts
27-Sep-17 18:21 33.434424 -111.995020 90 1142ft 0kts
27-Sep-17 18:22 33.434424 -111.995020 90 1142ft 0kts
27-Sep-17 18:23 33.434424 -111.995020 90 1142ft 0kts
27-Sep-17 18:24 33.434424 -111.995020 90 1142ft 0kts
27-Sep-17 18:25 33.434424 -111.995020 90 1142ft 0kts
27-Sep-17 18:26 33.434424 -111.995020 90 1142ft 0kts
27-Sep-17 18:27 33.434424 -111.995020 90 1142ft 0kts
27-Sep-17 18:28 33.434424 -111.995020 90 1142ft 0kts
27-Sep-17 18:29 33.434424 -111.995020 90 1142ft 0kts
27-Sep-17 18:30 33.434424 -111.995094 90 1142ft 0kts
27-Sep-17 18:31 33.434427 -111.995654 90 1142ft 2kts
27-Sep-17 18:32 33.434427 -111.995673 90 1142ft 0kts
27-Sep-17 18:33 33.434282 -111.995454 149 1142ft 1kts
27-Sep-17 18:34 33.433277 -111.995395 176 1142ft 0kts
27-Sep-17 18:35 33.433277 -111.995395 176 1142ft 0kts
27-Sep-17 18:37 33.432984 -111.995489 200 1142ft 5kts
27-Sep-17 18:38 33.432133 -111.994123 93 1142ft 7kts
27-Sep-17 18:39 33.432042 -111.993433 141 1142ft 0kts
27-Sep-17 18:40 33.432041 -111.993432 141 1142ft 0kts
27-Sep-17 18:41 33.432040 -111.993431 141 1142ft 0kts
27-Sep-17 18:42 33.432039 -111.993431 141 1142ft 0kts
27-Sep-17 18:43 33.431148 -111.993611 227 1142ft 9kts
27-Sep-17 18:44 33.431051 -112.030324 270 1924ft 173kts
27-Sep-17 18:45 33.448242 -112.087246 311 4310ft 235kts
27-Sep-17 18:46 33.503598 -112.146093 316 7439ft 282kts
27-Sep-17 18:47 33.579226 -112.172828 0 11052ft 302kts
27-Sep-17 18:48 33.658052 -112.119208 47 12878ft 369kts
27-Sep-17 18:49 33.728770 -112.024082 58 15815ft 392kts
27-Sep-17 18:50 33.741017 -111.892737 96 18260ft 415kts
27-Sep-17 18:51 33.728716 -111.751090 97 20675ft 438kts
27-Sep-17 18:52 33.716191 -111.601830 98 22765ft 458kts
27-Sep-17 18:53 33.702984 -111.446622 98 24589ft 476kts
27-Sep-17 18:54 33.692913 -111.285836 87 26203ft 495kts
27-Sep-17 18:55 33.737053 -111.125740 67 27541ft 515kts
27-Sep-17 18:56 33.794685 -110.965901 68 28708ft 527kts
27-Sep-17 18:57 33.852555 -110.803476 69 30137ft 531kts
27-Sep-17 18:58 33.910690 -110.639353 70 31157ft 537kts
27-Sep-17 18:59 33.968854 -110.473773 71 31181ft 536kts
27-Sep-17 19:00 34.026465 -110.308110 71 31206ft 533kts
27-Sep-17 19:01 34.083691 -110.142925 71 31239ft 537kts
27-Sep-17 19:02 34.141062 -109.976178 71 31254ft 541kts
27-Sep-17 19:03 34.198268 -109.808903 71 31250ft 536kts
27-Sep-17 19:04 34.255238 -109.642842 72 31231ft 535kts
27-Sep-17 19:05 34.311882 -109.476811 72 31211ft 534kts
27-Sep-17 19:06 34.368005 -109.310642 72 31196ft 530kts
27-Sep-17 19:07 34.421292 -109.144742 78 31200ft 526kts
27-Sep-17 19:08 34.446434 -108.973221 88 31206ft 518kts
27-Sep-17 19:09 34.467564 -108.801023 86 31212ft 516kts
27-Sep-17 19:10 34.488854 -108.629188 87 31251ft 518kts
27-Sep-17 19:11 34.511140 -108.457101 83 31285ft 521kts
27-Sep-17 19:12 34.541512 -108.284588 84 30826ft 516kts
27-Sep-17 19:13 34.570597 -108.116082 83 28532ft 481kts
27-Sep-17 19:14 34.596031 -107.965824 83 26417ft 439kts
27-Sep-17 19:15 34.620506 -107.824828 78 23924ft 414kts
27-Sep-17 19:16 34.668073 -107.699549 65 21178ft 404kts
27-Sep-17 19:17 34.719071 -107.582960 65 19505ft 393kts
27-Sep-17 19:18 34.769868 -107.465044 65 17631ft 387kts
27-Sep-17 19:19 34.818581 -107.350676 65 15762ft 375kts
27-Sep-17 19:20 34.865206 -107.239967 66 14167ft 354kts
27-Sep-17 19:21 34.897074 -107.134874 92 12651ft 303kts
27-Sep-17 19:22 34.892078 -107.035155 98 11131ft 290kts
27-Sep-17 19:23 34.885996 -106.937283 97 9956ft 285kts
27-Sep-17 19:24 34.879899 -106.842295 95 8695ft 267kts
27-Sep-17 19:25 34.901136 -106.769383 40 7935ft 225kts
27-Sep-17 19:26 34.944313 -106.723663 43 7412ft 193kts
27-Sep-17 19:27 34.980054 -106.681737 47 6507ft 157kts
27-Sep-17 19:28 35.009697 -106.645787 42 5716ft 141kts
27-Sep-17 19:29 35.033266 -106.617908 6 5363ft 28kts
27-Sep-17 19:30 35.035814 -106.616296 43 5363ft 27kts
27-Sep-17 19:31 35.040030 -106.613859 357 5363ft 15kts
27-Sep-17 19:32 35.044412 -106.613767 0 5363ft 17kts
27-Sep-17 19:33 35.046907 -106.614806 359 5363ft 0kts
27-Sep-17 19:34 35.046908 -106.614806 359 5363ft 0kts
27-Sep-17 19:35 35.046908 -106.614806 359 5363ft 0kts
27-Sep-17 19:36 35.046909 -106.614806 359 5363ft 0kts
27-Sep-17 19:37 35.046910 -106.614806 359 5363ft 0kts
27-Sep-17 19:38 35.046910 -106.614806 359 5363ft 0kts

Navigation Log

Ident Type
Flight plan parsing failed, navigation log unavailable